createdAt,value
2022-09-07T00:01:01.467Z,101183.13
2022-09-07T00:03:29.361Z,101184.25
2022-09-07T00:05:57.283Z,101181.47
2022-09-07T00:08:27.965Z,101166.72
2022-09-07T00:10:57.889Z,101156.16
2022-09-07T00:13:27.705Z,101162.38
2022-09-07T00:15:55.537Z,101161.16
2022-09-07T00:18:25.004Z,101170.88
2022-09-07T00:20:59.451Z,101164.69
2022-09-07T00:23:28.780Z,101156.03
2022-09-07T00:26:00.673Z,101158.81
2022-09-07T00:28:28.412Z,101163.91
2022-09-07T00:30:56.450Z,101172.84
2022-09-07T00:33:26.027Z,101158.53
2022-09-07T00:35:53.787Z,101162.13
2022-09-07T00:38:21.676Z,101166.50
2022-09-07T00:40:49.611Z,101160.69
2022-09-07T00:43:19.325Z,101147.31
2022-09-07T00:45:47.029Z,101156.47
2022-09-07T00:48:20.121Z,101149.00
2022-09-07T00:50:53.702Z,101151.75
2022-09-07T00:53:26.895Z,101149.00
2022-09-07T00:55:55.556Z,101148.50
2022-09-07T00:58:24.697Z,101146.47
2022-09-07T01:00:53.049Z,101136.34
2022-09-07T01:03:25.296Z,101139.47
2022-09-07T01:05:59.964Z,101151.75
2022-09-07T01:08:28.080Z,101146.34
2022-09-07T01:10:56.537Z,101143.09
2022-09-07T01:13:24.250Z,101147.84
2022-09-07T01:16:00.457Z,101142.69
2022-09-07T01:18:38.767Z,101137.56
2022-09-07T01:21:27.340Z,101144.34
2022-09-07T01:24:29.464Z,101143.16
2022-09-07T01:27:48.891Z,101139.09
2022-09-07T01:30:20.426Z,101125.22
2022-09-07T01:33:12.290Z,101123.13
2022-09-07T01:35:46.441Z,101122.00
2022-09-07T01:38:22.506Z,101128.50
2022-09-07T01:40:57.871Z,101131.91
2022-09-07T01:43:36.457Z,101129.28
2022-09-07T01:46:12.117Z,101118.78
2022-09-07T01:48:44.191Z,101116.16
2022-09-07T01:51:14.130Z,101116.44
2022-09-07T01:53:47.917Z,101127.31
2022-09-07T01:56:25.814Z,101122.53
2022-09-07T01:58:57.629Z,101125.28
2022-09-07T02:01:32.965Z,101126.63
2022-09-07T02:04:06.077Z,101122.63
2022-09-07T02:06:40.496Z,101116.56
2022-09-07T02:09:15.440Z,101120.75
2022-09-07T02:11:45.958Z,101117.25
2022-09-07T02:14:19.847Z,101124.00
2022-09-07T02:16:56.519Z,101126.63
2022-09-07T02:19:28.650Z,101125.47
2022-09-07T02:22:01.712Z,101130.13
2022-09-07T02:24:35.213Z,101128.53
2022-09-07T02:27:08.782Z,101119.28
2022-09-07T02:29:36.630Z,101121.53
2022-09-07T02:32:06.302Z,101113.91
2022-09-07T02:34:34.343Z,101119.94
2022-09-07T02:37:05.312Z,101129.59
2022-09-07T02:39:33.724Z,101127.63
2022-09-07T02:42:01.571Z,101124.09
2022-09-07T02:44:34.728Z,101118.47
2022-09-07T02:47:14.606Z,101112.38
2022-09-07T02:50:10.868Z,101114.59
2022-09-07T02:52:47.446Z,101107.25
2022-09-07T02:55:28.120Z,101097.44
2022-09-07T02:58:04.378Z,101097.34
2022-09-07T03:00:38.899Z,101106.44
2022-09-07T03:03:19.431Z,101110.25
2022-09-07T03:05:53.442Z,101115.50
2022-09-07T03:08:26.212Z,101113.72
2022-09-07T03:10:54.753Z,101117.22
2022-09-07T03:13:24.295Z,101106.69
2022-09-07T03:15:55.718Z,101107.19
2022-09-07T03:18:26.048Z,101102.28
2022-09-07T03:20:54.478Z,101112.91
2022-09-07T03:23:22.398Z,101106.13
2022-09-07T03:25:50.400Z,101104.81
2022-09-07T03:28:18.500Z,101114.97
2022-09-07T03:30:47.377Z,101115.56
2022-09-07T03:33:16.169Z,101110.53
2022-09-07T03:35:45.940Z,101100.31
2022-09-07T03:38:13.874Z,101103.78
2022-09-07T03:40:41.674Z,101094.69
2022-09-07T03:43:09.382Z,101095.44
2022-09-07T03:45:37.220Z,101091.22
2022-09-07T03:48:05.149Z,101086.19
2022-09-07T03:50:32.927Z,101073.16
2022-09-07T03:53:02.055Z,101080.59
2022-09-07T03:55:29.847Z,101075.81
2022-09-07T03:57:58.027Z,101062.19
2022-09-07T04:00:26.171Z,101060.88
2022-09-07T04:02:54.002Z,101057.19
2022-09-07T04:05:21.739Z,101063.41
2022-09-07T04:07:49.697Z,101061.53
2022-09-07T04:10:18.950Z,101058.53
2022-09-07T04:12:46.653Z,101058.81
2022-09-07T04:15:14.438Z,101057.53
2022-09-07T04:17:42.197Z,101060.75
2022-09-07T04:20:10.862Z,101055.97
2022-09-07T04:22:38.619Z,101055.03
2022-09-07T04:25:06.588Z,101051.31
2022-09-07T04:27:35.670Z,101048.28
2022-09-07T04:30:03.479Z,101049.13
2022-09-07T04:32:31.383Z,101048.13
2022-09-07T04:34:59.133Z,101053.34
2022-09-07T04:37:26.884Z,101056.31
2022-09-07T04:39:54.723Z,101053.44
2022-09-07T04:42:22.897Z,101058.81
2022-09-07T04:44:52.019Z,101057.81
2022-09-07T04:47:19.951Z,101065.84
2022-09-07T04:49:51.456Z,101058.03
2022-09-07T04:52:19.365Z,101062.19
2022-09-07T04:54:50.812Z,101055.25
2022-09-07T04:57:21.725Z,101058.69
2022-09-07T04:59:49.600Z,101060.63
2022-09-07T05:02:18.738Z,101058.47
2022-09-07T05:04:46.621Z,101047.56
2022-09-07T05:07:14.367Z,101042.03
2022-09-07T05:09:42.120Z,101039.59
2022-09-07T05:12:10.243Z,101043.13
2022-09-07T05:14:39.103Z,101050.22
2022-09-07T05:17:07.788Z,101054.63
2022-09-07T05:19:36.919Z,101060.06
2022-09-07T05:22:04.652Z,101052.78
2022-09-07T05:24:36.051Z,101047.59
2022-09-07T05:27:03.990Z,101049.22
2022-09-07T05:32:20.077Z,101033.69
2022-09-07T05:34:52.306Z,101035.50
2022-09-07T05:37:20.725Z,101038.66
2022-09-07T05:39:48.499Z,101036.53
2022-09-07T05:42:16.307Z,101029.53
2022-09-07T05:44:44.901Z,101044.63
2022-09-07T05:47:13.692Z,101045.47
2022-09-07T05:49:41.647Z,101042.97
2022-09-07T05:52:11.143Z,101043.94
2022-09-07T05:54:39.008Z,101043.44
2022-09-07T05:57:07.279Z,101044.31
2022-09-07T05:59:35.283Z,101047.06
2022-09-07T06:02:03.207Z,101051.16
2022-09-07T06:04:31.062Z,101041.81
2022-09-07T06:07:20.505Z,101039.44
2022-09-07T06:12:36.131Z,101043.59
2022-09-07T06:15:05.325Z,101043.28
2022-09-07T06:17:33.165Z,101041.38
2022-09-07T06:20:00.875Z,101042.44
2022-09-07T06:22:30.914Z,101049.94
2022-09-07T06:25:00.476Z,101046.09
2022-09-07T06:27:28.301Z,101044.16
2022-09-07T06:29:56.060Z,101048.91
2022-09-07T06:35:12.443Z,101037.56
2022-09-07T06:37:40.310Z,101036.47
2022-09-07T06:40:11.486Z,101035.38
2022-09-07T06:42:39.578Z,101026.47
2022-09-07T06:45:07.822Z,101037.00
2022-09-07T06:47:35.833Z,101038.97
2022-09-07T06:50:03.720Z,101038.19
2022-09-07T06:55:20.648Z,101040.94
2022-09-07T06:57:48.397Z,101038.25
2022-09-07T07:00:16.826Z,101040.59
2022-09-07T07:02:44.588Z,101024.31
2022-09-07T07:05:12.414Z,101023.97
2022-09-07T07:07:40.183Z,101015.72
2022-09-07T07:10:08.796Z,101010.69
2022-09-07T07:15:04.885Z,101010.34
2022-09-07T07:17:32.615Z,101015.66
2022-09-07T07:20:00.386Z,101018.03
2022-09-07T07:22:46.577Z,101015.34
2022-09-07T07:25:15.222Z,101015.78
2022-09-07T07:27:45.910Z,101007.97
2022-09-07T07:30:14.027Z,101002.22
2022-09-07T07:32:42.207Z,101000.22
2022-09-07T07:35:10.796Z,101004.97
2022-09-07T07:37:39.343Z,101015.13
2022-09-07T07:40:18.660Z,101019.81
2022-09-07T07:42:50.486Z,101022.56
2022-09-07T07:48:06.576Z,101021.81
2022-09-07T07:50:34.620Z,101021.38
2022-09-07T07:55:50.603Z,101019.06
2022-09-07T07:58:20.131Z,101015.16
2022-09-07T08:00:54.652Z,101017.09
2022-09-07T08:03:23.594Z,101012.81
2022-09-07T08:05:51.606Z,101008.50
2022-09-07T08:08:19.686Z,100997.97
2022-09-07T08:10:47.721Z,100992.13
2022-09-07T08:13:15.795Z,100994.88
2022-09-07T08:15:46.296Z,101003.06
2022-09-07T08:18:15.696Z,101011.97
2022-09-07T08:20:43.895Z,101001.78
2022-09-07T08:23:11.577Z,101000.63
2022-09-07T08:25:39.327Z,101014.28
2022-09-07T08:28:07.014Z,101010.28
2022-09-07T08:30:35.105Z,101003.97
2022-09-07T08:33:04.154Z,101000.81
2022-09-07T08:35:31.855Z,100996.44
2022-09-07T08:37:59.587Z,101000.47
2022-09-07T08:40:27.224Z,100997.69
2022-09-07T08:43:05.934Z,100996.44
2022-09-07T08:45:38.010Z,100993.47
2022-09-07T08:48:07.231Z,100986.47
2022-09-07T08:50:43.653Z,100978.53
2022-09-07T08:53:15.415Z,100977.69
2022-09-07T08:55:50.657Z,100982.38
2022-09-07T08:58:47.811Z,100983.28
2022-09-07T09:04:19.344Z,100979.63
2022-09-07T09:07:04.116Z,100970.97
2022-09-07T09:09:46.794Z,100968.03
2022-09-07T09:12:24.974Z,100975.16
2022-09-07T09:15:10.785Z,100977.09
2022-09-07T09:17:45.632Z,100969.72
2022-09-07T09:20:24.918Z,100969.78
2022-09-07T09:22:55.498Z,100971.88
2022-09-07T09:25:27.746Z,100980.31
2022-09-07T09:27:55.385Z,100976.94
2022-09-07T09:30:25.489Z,100979.88
2022-09-07T09:33:12.530Z,100980.31
2022-09-07T09:35:42.388Z,100973.94
2022-09-07T09:38:30.282Z,100961.97
2022-09-07T09:41:01.133Z,100960.19
2022-09-07T09:43:36.369Z,100957.53
2022-09-07T09:46:19.544Z,100960.63
2022-09-07T09:48:55.659Z,100968.53
2022-09-07T09:54:24.500Z,100957.97
2022-09-07T09:56:53.402Z,100962.34
2022-09-07T10:05:28.054Z,100939.91
2022-09-07T10:07:57.835Z,100941.09
2022-09-07T10:10:27.365Z,100932.00
2022-09-07T10:12:56.385Z,100922.63
2022-09-07T10:15:32.857Z,100932.13
2022-09-07T10:18:05.951Z,100923.72
2022-09-07T10:20:36.475Z,100918.75
2022-09-07T10:23:07.122Z,100911.09
2022-09-07T10:25:37.352Z,100918.94
2022-09-07T10:28:17.952Z,100916.41
2022-09-07T10:30:59.718Z,100914.50
2022-09-07T10:33:41.650Z,100919.53
2022-09-07T10:36:16.989Z,100914.28
2022-09-07T10:38:50.928Z,100914.53
2022-09-07T10:41:24.636Z,100908.91
2022-09-07T10:43:53.191Z,100909.13
2022-09-07T10:47:00.406Z,100910.66
2022-09-07T10:49:38.404Z,100907.91
2022-09-07T10:52:23.830Z,100909.28
2022-09-07T10:54:57.227Z,100899.44
2022-09-07T10:57:34.325Z,100893.69
2022-09-07T11:00:09.753Z,100900.59
2022-09-07T11:06:04.988Z,100899.38
2022-09-07T11:14:29.409Z,100888.53
2022-09-07T11:17:01.084Z,100897.72
2022-09-07T11:19:35.914Z,100897.59
2022-09-07T11:22:16.888Z,100900.47
2022-09-07T11:27:45.632Z,100910.63
2022-09-07T11:30:20.779Z,100901.47
2022-09-07T11:32:56.382Z,100899.47
2022-09-07T11:35:32.565Z,100893.19
2022-09-07T11:38:10.736Z,100894.94
2022-09-07T11:40:44.635Z,100898.53
2022-09-07T11:43:22.659Z,100892.16
2022-09-07T11:45:55.098Z,100894.16
2022-09-07T11:48:32.035Z,100896.53
2022-09-07T11:51:03.444Z,100878.50
2022-09-07T11:53:36.553Z,100899.22
2022-09-07T11:56:11.775Z,100903.88
2022-09-07T11:58:56.132Z,100912.41
2022-09-07T12:01:35.121Z,100904.88
2022-09-07T12:04:29.463Z,100892.84
2022-09-07T12:07:20.001Z,100901.47
2022-09-07T12:10:07.576Z,100894.16
2022-09-07T12:12:56.622Z,100898.50
2022-09-07T12:15:36.633Z,100888.66
2022-09-07T12:18:18.431Z,100887.34
2022-09-07T12:20:47.971Z,100877.63
2022-09-07T12:23:28.779Z,100876.84
2022-09-07T12:26:39.329Z,100876.00
2022-09-07T12:29:21.175Z,100873.25
2022-09-07T12:32:07.764Z,100866.50
2022-09-07T12:34:51.365Z,100873.06
2022-09-07T12:37:44.389Z,100865.66
2022-09-07T12:40:57.753Z,100870.84
2022-09-07T12:44:02.107Z,100865.03
2022-09-07T12:46:46.662Z,100848.81
2022-09-07T12:49:39.066Z,100857.94
2022-09-07T12:52:33.037Z,100852.13
2022-09-07T12:55:28.006Z,100845.94
2022-09-07T12:58:15.002Z,100844.94
2022-09-07T13:00:59.638Z,100849.59
2022-09-07T13:04:10.486Z,100841.06
2022-09-07T13:07:03.095Z,100843.59
2022-09-07T13:09:37.591Z,100839.06
2022-09-07T13:15:45.236Z,100842.84
2022-09-07T13:18:40.211Z,100849.19
2022-09-07T13:21:35.840Z,100838.16
2022-09-07T13:24:46.491Z,100847.66
2022-09-07T13:27:46.753Z,100835.50
2022-09-07T13:30:46.288Z,100832.63
2022-09-07T13:33:50.594Z,100833.72
2022-09-07T13:36:38.410Z,100825.94
2022-09-07T13:39:12.656Z,100825.81
2022-09-07T13:41:46.555Z,100826.09
2022-09-07T13:44:25.809Z,100830.25
2022-09-07T13:47:02.648Z,100823.56
2022-09-07T13:49:55.897Z,100828.50
2022-09-07T13:52:38.453Z,100825.72
2022-09-07T13:55:26.001Z,100829.22
2022-09-07T13:58:12.029Z,100820.88
2022-09-07T14:00:52.346Z,100820.75
2022-09-07T14:03:21.643Z,100819.00
2022-09-07T14:05:49.300Z,100819.44
2022-09-07T14:08:30.011Z,100815.22
2022-09-07T14:10:57.741Z,100813.28
2022-09-07T14:13:25.593Z,100812.00
2022-09-07T14:15:53.365Z,100810.16
2022-09-07T14:18:31.691Z,100812.59
2022-09-07T14:20:59.523Z,100807.69
2022-09-07T14:23:31.603Z,100793.53
2022-09-07T14:26:16.552Z,100804.97
2022-09-07T14:28:46.419Z,100802.00
2022-09-07T14:31:17.397Z,100800.53
2022-09-07T14:33:50.985Z,100804.28
2022-09-07T14:36:41.647Z,100794.16
2022-09-07T14:39:10.209Z,100803.22
2022-09-07T14:41:39.893Z,100805.25
2022-09-07T14:44:07.632Z,100800.38
2022-09-07T14:46:35.835Z,100798.59
2022-09-07T14:49:07.820Z,100793.19
2022-09-07T14:51:37.017Z,100795.22
2022-09-07T14:54:07.407Z,100798.38
2022-09-07T14:56:39.153Z,100791.31
2022-09-07T14:59:29.372Z,100795.84
2022-09-07T15:02:24.477Z,100797.06
2022-09-07T15:05:25.475Z,100802.59
2022-09-07T15:07:58.576Z,100795.09
2022-09-07T15:10:32.585Z,100795.69
2022-09-07T15:13:02.865Z,100783.22
2022-09-07T15:15:32.941Z,100777.63
2022-09-07T15:18:07.792Z,100779.53
2022-09-07T15:20:41.595Z,100773.50
2022-09-07T15:23:12.226Z,100774.72
2022-09-07T15:25:43.284Z,100778.13
2022-09-07T15:34:02.033Z,100771.13
2022-09-07T15:36:31.948Z,100778.56
2022-09-07T15:39:00.941Z,100773.09
2022-09-07T15:41:29.528Z,100780.28
2022-09-07T15:43:59.142Z,100775.31
2022-09-07T15:46:27.203Z,100772.28
2022-09-07T15:48:56.886Z,100776.16
2022-09-07T15:54:14.500Z,100772.16
2022-09-07T15:56:44.448Z,100770.16
2022-09-07T15:59:35.403Z,100766.97
2022-09-07T16:02:03.450Z,100765.56
2022-09-07T16:04:31.840Z,100768.75
2022-09-07T16:07:01.641Z,100767.63
2022-09-07T16:09:29.629Z,100760.03
2022-09-07T16:13:00.139Z,100753.50
2022-09-07T16:14:46.492Z,100753.84
2022-09-07T16:17:35.765Z,100755.72
2022-09-07T16:20:02.329Z,100755.38
2022-09-07T16:25:18.292Z,100741.69
2022-09-07T16:27:46.433Z,100739.50
2022-09-07T16:30:15.705Z,100733.22
2022-09-07T16:32:44.772Z,100728.66
2022-09-07T16:35:12.756Z,100735.53
2022-09-07T16:38:43.591Z,100727.59
2022-09-07T16:40:28.175Z,100726.72
2022-09-07T16:42:55.853Z,100719.63
2022-09-07T16:48:14.926Z,100714.00
2022-09-07T16:50:56.598Z,100708.94
2022-09-07T16:53:34.140Z,100709.50
2022-09-07T16:56:04.239Z,100711.59
2022-09-07T16:58:36.785Z,100713.09
2022-09-07T17:01:11.687Z,100714.56
2022-09-07T17:03:42.704Z,100715.81
2022-09-07T17:06:12.755Z,100710.41
2022-09-07T17:08:43.931Z,100717.00
2022-09-07T17:11:13.706Z,100719.31
2022-09-07T17:13:44.820Z,100716.31
2022-09-07T17:16:19.840Z,100712.06
2022-09-07T17:21:38.459Z,100732.56
2022-09-07T17:24:08.214Z,100730.25
2022-09-07T17:26:36.078Z,100730.69
2022-09-07T17:29:03.819Z,100728.00
2022-09-07T17:34:23.046Z,100718.94
2022-09-07T17:36:51.490Z,100719.34
2022-09-07T17:39:19.906Z,100722.22
2022-09-07T17:41:49.251Z,100727.69
2022-09-07T17:44:17.098Z,100726.84
2022-09-07T17:46:46.322Z,100718.75
2022-09-07T17:49:16.445Z,100715.22
2022-09-07T17:51:45.802Z,100716.56
2022-09-07T17:54:15.882Z,100722.16
2022-09-07T17:56:44.530Z,100719.75
2022-09-07T18:02:02.217Z,100732.81
2022-09-07T18:04:30.348Z,100730.16
2022-09-07T18:06:58.073Z,100732.81
2022-09-07T18:09:25.825Z,100738.38
2022-09-07T18:11:53.522Z,100746.22
2022-09-07T18:14:21.201Z,100755.31
2022-09-07T18:16:50.338Z,100758.16
2022-09-07T18:19:19.847Z,100754.75
2022-09-07T18:21:48.710Z,100755.97
2022-09-07T18:24:18.981Z,100761.03
2022-09-07T18:26:52.185Z,100761.38
2022-09-07T18:29:36.838Z,100763.78
2022-09-07T18:32:09.409Z,100757.31
2022-09-07T18:34:41.374Z,100755.75
2022-09-07T18:37:09.354Z,100762.97
2022-09-07T18:39:37.161Z,100763.50
2022-09-07T18:42:05.221Z,100765.56
2022-09-07T18:47:27.494Z,100776.75
2022-09-07T18:49:57.839Z,100786.59
2022-09-07T18:55:13.662Z,100795.28
2022-09-07T18:57:43.163Z,100785.06
2022-09-07T19:00:18.023Z,100787.16
2022-09-07T19:02:47.545Z,100794.53
2022-09-07T19:08:04.823Z,100795.16
2022-09-07T19:10:35.342Z,100794.91
2022-09-07T19:13:03.142Z,100785.44
2022-09-07T19:15:36.822Z,100790.13
2022-09-07T19:18:08.045Z,100784.09
2022-09-07T19:20:37.313Z,100793.00
2022-09-07T19:23:05.270Z,100789.66
2022-09-07T19:25:32.953Z,100795.34
2022-09-07T19:28:00.610Z,100791.81
2022-09-07T19:30:28.278Z,100784.53
2022-09-07T19:32:57.116Z,100792.16
2022-09-07T19:35:26.433Z,100784.59
2022-09-07T19:37:55.835Z,100782.19
2022-09-07T19:40:23.571Z,100786.00
2022-09-07T19:42:51.284Z,100784.56
2022-09-07T19:45:19.009Z,100770.50
2022-09-07T19:47:46.721Z,100782.72
2022-09-07T19:50:14.510Z,100780.16
2022-09-07T19:52:42.651Z,100784.19
2022-09-07T19:55:11.863Z,100782.72
2022-09-07T19:57:39.547Z,100783.09
2022-09-07T20:00:08.556Z,100775.63
2022-09-07T20:02:36.342Z,100770.75
2022-09-07T20:05:04.148Z,100769.31
2022-09-07T20:07:32.137Z,100767.59
2022-09-07T20:10:00.007Z,100765.69
2022-09-07T20:12:29.066Z,100763.09
2022-09-07T20:14:56.736Z,100766.47
2022-09-07T20:17:24.541Z,100762.72
2022-09-07T20:19:52.298Z,100771.31
2022-09-07T20:22:19.954Z,100763.44
2022-09-07T20:24:47.645Z,100761.63
2022-09-07T20:27:15.586Z,100751.13
2022-09-07T20:29:44.663Z,100752.00
2022-09-07T20:32:12.328Z,100750.28
2022-09-07T20:34:40.378Z,100742.06
2022-09-07T20:37:08.044Z,100728.72
2022-09-07T20:39:39.081Z,100730.88
2022-09-07T20:42:08.779Z,100732.16
2022-09-07T20:44:36.569Z,100729.63
2022-09-07T20:47:06.099Z,100728.38
2022-09-07T20:49:33.770Z,100732.31
2022-09-07T20:52:01.504Z,100734.19
2022-09-07T20:54:29.188Z,100724.44
2022-09-07T20:56:59.985Z,100728.00
2022-09-07T20:59:29.801Z,100726.50
2022-09-07T21:01:57.497Z,100729.00
2022-09-07T21:04:27.436Z,100730.97
2022-09-07T21:06:55.087Z,100725.22
2022-09-07T21:09:23.089Z,100723.88
2022-09-07T21:11:54.018Z,100720.28
2022-09-07T21:14:24.150Z,100720.31
2022-09-07T21:16:51.870Z,100728.28
2022-09-07T21:19:19.598Z,100734.91
2022-09-07T21:21:48.650Z,100729.41
2022-09-07T21:24:18.719Z,100725.19
2022-09-07T21:26:46.976Z,100717.50
2022-09-07T21:29:18.611Z,100712.53
2022-09-07T21:31:46.605Z,100721.63
2022-09-07T21:34:15.086Z,100715.31
2022-09-07T21:36:42.975Z,100711.56
2022-09-07T21:39:14.532Z,100713.53
2022-09-07T21:41:43.193Z,100719.41
2022-09-07T21:44:13.737Z,100717.16
2022-09-07T21:46:42.437Z,100719.84
2022-09-07T21:49:10.442Z,100720.63
2022-09-07T21:51:38.257Z,100714.13
2022-09-07T21:54:06.085Z,100714.53
2022-09-07T21:56:35.471Z,100712.97
2022-09-07T21:59:04.717Z,100709.16
2022-09-07T22:01:32.853Z,100707.22
2022-09-07T22:04:06.814Z,100707.19
2022-09-07T22:06:35.106Z,100707.56
2022-09-07T22:09:04.940Z,100705.09
2022-09-07T22:11:33.513Z,100698.19
2022-09-07T22:14:04.554Z,100701.56
2022-09-07T22:16:33.789Z,100715.28
2022-09-07T22:19:01.615Z,100711.84
2022-09-07T22:21:30.801Z,100705.84
2022-09-07T22:24:00.144Z,100705.84
2022-09-07T22:26:30.062Z,100708.19
2022-09-07T22:28:59.353Z,100719.13
2022-09-07T22:31:29.931Z,100721.63
2022-09-07T22:33:59.174Z,100721.69
2022-09-07T22:36:28.937Z,100716.44
2022-09-07T22:38:58.175Z,100717.44
2022-09-07T22:41:27.907Z,100713.06
2022-09-07T22:43:56.371Z,100718.44
2022-09-07T22:46:26.370Z,100719.38
2022-09-07T22:48:56.423Z,100715.94
2022-09-07T22:51:25.276Z,100706.63
2022-09-07T22:53:53.995Z,100710.06
2022-09-07T22:56:24.116Z,100712.94
2022-09-07T22:58:53.422Z,100697.66
2022-09-07T23:01:21.873Z,100697.22
2022-09-07T23:03:50.005Z,100693.31
2022-09-07T23:06:24.534Z,100695.81
2022-09-07T23:08:54.777Z,100683.75
2022-09-07T23:11:23.958Z,100684.16
2022-09-07T23:13:53.005Z,100684.88
2022-09-07T23:16:21.263Z,100683.75
2022-09-07T23:18:50.153Z,100674.81
2022-09-07T23:21:18.002Z,100674.50
2022-09-07T23:23:50.185Z,100668.97
2022-09-07T23:26:18.186Z,100666.34
2022-09-07T23:28:45.815Z,100671.09
2022-09-07T23:31:13.738Z,100671.47
2022-09-07T23:33:41.392Z,100665.22
2022-09-07T23:36:09.144Z,100665.66
2022-09-07T23:38:37.324Z,100664.06
2022-09-07T23:41:06.554Z,100658.22
2022-09-07T23:43:34.361Z,100660.31
2022-09-07T23:46:02.557Z,100653.63
2022-09-07T23:48:30.275Z,100654.44
2022-09-07T23:50:58.224Z,100652.47
2022-09-07T23:53:26.767Z,100646.97
2022-09-07T23:55:54.567Z,100644.28
2022-09-07T23:58:24.004Z,100637.25
